createdAt,value
2019-04-26T00:00:48.082Z,21.38
2019-04-26T00:03:18.543Z,21.48
2019-04-26T00:05:47.483Z,21.65
2019-04-26T00:08:15.804Z,22.00
2019-04-26T00:18:20.971Z,22.67
2019-04-26T00:20:50.990Z,22.88
2019-04-26T00:23:22.629Z,22.86
2019-04-26T00:25:51.779Z,22.89
2019-04-26T00:28:21.190Z,23.14
2019-04-26T00:30:48.338Z,23.17
2019-04-26T00:33:15.853Z,23.14
2019-04-26T00:35:47.780Z,23.12
2019-04-26T00:38:11.615Z,22.95
2019-04-26T00:40:43.341Z,22.92
2019-04-26T00:43:12.868Z,23.14
2019-04-26T00:45:43.110Z,23.15
2019-04-26T00:48:14.002Z,23.13
2019-04-26T00:50:43.633Z,23.04
2019-04-26T00:53:13.311Z,22.92
2019-04-26T00:55:44.898Z,22.90
2019-04-26T00:58:14.923Z,22.98
2019-04-26T01:00:44.543Z,22.94
2019-04-26T01:03:16.628Z,22.89
2019-04-26T01:05:59.539Z,22.92
2019-04-26T01:08:19.247Z,23.05
2019-04-26T01:10:49.652Z,22.90
2019-04-26T01:13:17.849Z,22.75
2019-04-26T01:15:48.821Z,22.70
2019-04-26T01:18:16.862Z,22.55
2019-04-26T01:20:47.039Z,22.41
2019-04-26T01:23:14.428Z,22.33
2019-04-26T01:25:42.841Z,22.28
2019-04-26T01:28:15.222Z,22.24
2019-04-26T01:30:48.289Z,22.10
2019-04-26T01:33:18.729Z,22.00
2019-04-26T01:35:57.650Z,22.01
2019-04-26T01:41:12.102Z,21.59
2019-04-26T01:43:41.605Z,21.58
2019-04-26T01:46:09.508Z,21.51
2019-04-26T01:48:36.108Z,21.45
2019-04-26T01:51:05.612Z,21.36
2019-04-26T01:53:34.347Z,21.31
2019-04-26T01:56:04.622Z,21.22
2019-04-26T01:58:31.470Z,21.28
2019-04-26T02:01:01.186Z,21.09
2019-04-26T02:03:29.802Z,21.01
2019-04-26T02:05:59.405Z,21.01
2019-04-26T02:08:26.305Z,21.00
2019-04-26T02:10:53.127Z,20.90
2019-04-26T02:13:25.062Z,20.75
2019-04-26T02:15:52.803Z,20.70
2019-04-26T02:18:23.964Z,20.54
2019-04-26T02:20:53.692Z,20.54
2019-04-26T02:23:20.624Z,20.66
2019-04-26T02:25:48.016Z,20.65
2019-04-26T02:31:11.163Z,20.45
2019-04-26T02:33:40.182Z,20.42
2019-04-26T02:36:10.939Z,20.34
2019-04-26T02:38:39.844Z,20.41
2019-04-26T02:41:09.686Z,20.40
2019-04-26T02:43:37.325Z,20.45
2019-04-26T02:46:07.085Z,20.45
2019-04-26T02:48:37.959Z,20.50
2019-04-26T02:51:06.731Z,20.34
2019-04-26T02:53:38.669Z,20.19
2019-04-26T02:56:05.136Z,20.17
2019-04-26T02:58:35.948Z,20.29
2019-04-26T03:01:05.591Z,20.27
2019-04-26T03:03:37.645Z,20.33
2019-04-26T03:06:03.856Z,20.31
2019-04-26T03:08:31.877Z,20.16
2019-04-26T03:11:03.713Z,20.07
2019-04-26T03:13:32.184Z,20.05
2019-04-26T03:16:00.214Z,20.04
2019-04-26T03:18:26.940Z,20.07
2019-04-26T03:20:55.823Z,20.09
2019-04-26T03:23:23.489Z,20.05
2019-04-26T03:25:52.439Z,19.95
2019-04-26T03:28:21.829Z,19.99
2019-04-26T03:30:52.353Z,19.91
2019-04-26T03:33:19.179Z,20.00
2019-04-26T03:35:56.499Z,19.88
2019-04-26T03:38:14.436Z,19.70
2019-04-26T03:40:44.587Z,19.74
2019-04-26T03:43:14.212Z,19.71
2019-04-26T03:45:43.122Z,19.81
2019-04-26T03:48:09.680Z,19.90
2019-04-26T03:50:37.881Z,19.65
2019-04-26T03:53:04.957Z,19.63
2019-04-26T03:55:35.946Z,19.75
2019-04-26T03:58:04.896Z,19.68
2019-04-26T04:00:32.752Z,19.56
2019-04-26T04:02:59.849Z,19.49
2019-04-26T04:05:27.023Z,19.62
2019-04-26T04:07:59.108Z,19.57
2019-04-26T04:13:09.812Z,19.67
2019-04-26T04:15:41.902Z,19.66
2019-04-26T04:18:07.592Z,19.60
2019-04-26T04:20:34.173Z,19.57
2019-04-26T04:23:01.138Z,19.61
2019-04-26T04:25:28.776Z,19.61
2019-04-26T04:30:40.659Z,20.10
2019-04-26T04:33:12.217Z,19.86
2019-04-26T04:38:25.393Z,19.68
2019-04-26T04:40:53.421Z,19.85
2019-04-26T04:43:20.227Z,19.86
2019-04-26T04:45:49.655Z,19.94
2019-04-26T04:48:16.522Z,19.95
2019-04-26T04:50:44.931Z,20.00
2019-04-26T04:53:12.910Z,20.05
2019-04-26T04:55:39.733Z,20.21
2019-04-26T04:58:07.392Z,20.08
2019-04-26T05:00:35.028Z,20.06
2019-04-26T05:03:01.651Z,19.82
2019-04-26T05:05:28.722Z,19.88
2019-04-26T05:08:06.491Z,19.75
2019-04-26T05:10:28.521Z,19.84
2019-04-26T05:12:55.189Z,19.81
2019-04-26T05:15:21.831Z,19.84
2019-04-26T05:17:49.489Z,19.96
2019-04-26T05:20:16.634Z,20.17
2019-04-26T05:22:43.264Z,20.04
2019-04-26T05:25:09.853Z,20.28
2019-04-26T05:27:36.554Z,20.25
2019-04-26T05:30:03.531Z,20.24
2019-04-26T05:35:15.232Z,20.30
2019-04-26T05:37:41.818Z,20.08
2019-04-26T05:40:08.430Z,19.95
2019-04-26T05:42:35.385Z,20.09
2019-04-26T05:45:01.989Z,20.11
2019-04-26T05:50:13.487Z,19.93
2019-04-26T05:52:40.415Z,19.74
2019-04-26T05:55:07.018Z,19.75
2019-04-26T05:57:33.645Z,19.77
2019-04-26T06:00:01.099Z,19.91
2019-04-26T06:02:28.107Z,20.04
2019-04-26T06:04:55.474Z,20.09
2019-04-26T06:07:22.058Z,20.30
2019-04-26T06:09:50.325Z,20.28
2019-04-26T06:12:17.494Z,20.04
2019-04-26T06:14:44.694Z,20.01
2019-04-26T06:17:11.515Z,20.05
2019-04-26T06:19:38.318Z,20.29
2019-04-26T06:22:05.185Z,20.51
2019-04-26T06:24:32.157Z,20.46
2019-04-26T06:27:11.012Z,20.57
2019-04-26T06:29:27.350Z,20.64
2019-04-26T06:31:55.017Z,20.88
2019-04-26T06:34:22.988Z,21.00
2019-04-26T06:36:49.937Z,20.99
2019-04-26T06:39:20.470Z,21.13
2019-04-26T06:41:49.018Z,21.29
2019-04-26T06:44:22.143Z,21.35
2019-04-26T06:46:49.968Z,21.30
2019-04-26T06:49:24.014Z,21.57
2019-04-26T06:51:56.986Z,21.51
2019-04-26T06:54:32.824Z,21.40
2019-04-26T06:57:11.511Z,21.34
2019-04-26T06:59:36.421Z,21.23
2019-04-26T07:02:00.908Z,21.06
2019-04-26T07:04:30.338Z,20.95
2019-04-26T07:07:02.572Z,21.09
2019-04-26T07:12:15.916Z,21.30
2019-04-26T07:14:49.412Z,21.57
2019-04-26T07:17:18.478Z,21.60
2019-04-26T07:19:47.338Z,21.76
2019-04-26T07:22:35.204Z,21.99
2019-04-26T07:24:57.504Z,22.26
2019-04-26T07:30:12.190Z,22.31
2019-04-26T07:32:39.928Z,22.15
2019-04-26T07:35:09.766Z,22.14
2019-04-26T07:37:48.143Z,22.07
2019-04-26T07:40:13.561Z,22.18
2019-04-26T07:42:41.827Z,22.22
2019-04-26T07:45:12.468Z,22.19
2019-04-26T07:47:45.787Z,22.16
2019-04-26T07:50:12.688Z,22.15
2019-04-26T07:52:44.869Z,22.26
2019-04-26T07:55:12.887Z,22.43
2019-04-26T07:57:46.395Z,22.55
2019-04-26T08:00:13.097Z,22.85
2019-04-26T08:02:51.639Z,23.10
2019-04-26T08:05:24.394Z,22.95
2019-04-26T08:07:53.483Z,23.05
2019-04-26T08:10:21.893Z,22.96
2019-04-26T08:15:39.078Z,23.09
2019-04-26T08:18:17.341Z,23.12
2019-04-26T08:23:41.713Z,23.14
2019-04-26T08:28:50.636Z,23.53
2019-04-26T08:31:27.544Z,23.71
2019-04-26T08:33:59.223Z,24.08
2019-04-26T08:36:29.329Z,23.95
2019-04-26T08:39:06.977Z,24.02
2019-04-26T08:41:39.101Z,24.13
2019-04-26T08:44:17.226Z,24.23
2019-04-26T08:46:47.506Z,24.50
2019-04-26T08:49:25.765Z,24.51
2019-04-26T08:51:55.886Z,24.47
2019-04-26T08:54:22.523Z,24.54
2019-04-26T08:56:51.392Z,24.78
2019-04-26T08:59:19.736Z,24.84
2019-04-26T09:01:50.029Z,25.14
2019-04-26T09:04:18.718Z,25.09
2019-04-26T09:06:45.449Z,25.43
2019-04-26T09:09:18.296Z,25.60
2019-04-26T09:11:59.079Z,25.79
2019-04-26T09:14:18.497Z,25.77
2019-04-26T09:16:50.508Z,25.93
2019-04-26T09:19:17.641Z,26.00
2019-04-26T09:21:47.520Z,26.33
2019-04-26T09:24:21.148Z,26.55
2019-04-26T09:26:48.458Z,26.43
2019-04-26T09:29:16.750Z,26.62
2019-04-26T09:31:45.127Z,26.90
2019-04-26T09:34:14.355Z,27.33
2019-04-26T09:36:40.947Z,27.68
2019-04-26T09:39:09.786Z,27.68
2019-04-26T09:41:39.451Z,28.03
2019-04-26T09:44:08.640Z,28.65
2019-04-26T09:46:35.606Z,29.01
2019-04-26T09:49:03.088Z,28.75
2019-04-26T09:51:34.775Z,28.80
2019-04-26T09:54:03.002Z,28.68
2019-04-26T09:56:33.535Z,28.44
2019-04-26T09:59:01.474Z,28.42
2019-04-26T10:01:30.885Z,28.26
2019-04-26T10:04:00.636Z,28.38
2019-04-26T10:12:01.062Z,28.80
2019-04-26T10:14:28.468Z,28.68
2019-04-26T10:16:56.333Z,28.54
2019-04-26T10:19:31.641Z,28.52
2019-04-26T10:22:00.739Z,28.50
2019-04-26T10:24:30.028Z,28.50
2019-04-26T10:27:03.306Z,28.50
2019-04-26T10:32:09.316Z,28.44
2019-04-26T10:34:38.096Z,28.33
2019-04-26T10:37:08.187Z,28.43
2019-04-26T10:39:37.047Z,28.51
2019-04-26T10:42:06.229Z,28.52
2019-04-26T10:44:35.843Z,28.30
2019-04-26T10:47:04.393Z,28.26
2019-04-26T10:49:34.658Z,28.38
2019-04-26T10:52:06.289Z,28.74
2019-04-26T10:54:36.804Z,28.76
2019-04-26T10:57:05.157Z,28.71
2019-04-26T10:59:39.908Z,28.89
2019-04-26T11:02:05.180Z,29.01
2019-04-26T11:04:32.007Z,29.18
2019-04-26T11:07:01.978Z,29.21
2019-04-26T11:09:27.638Z,29.13
2019-04-26T11:11:54.560Z,29.07
2019-04-26T11:14:22.608Z,28.79
2019-04-26T11:16:50.084Z,28.70
2019-04-26T11:19:16.963Z,28.82
2019-04-26T11:21:43.881Z,28.77
2019-04-26T11:24:11.102Z,28.96
2019-04-26T11:26:39.312Z,28.88
2019-04-26T11:29:06.229Z,28.79
2019-04-26T11:31:33.417Z,28.63
2019-04-26T11:34:05.518Z,28.71
2019-04-26T11:36:29.230Z,28.86
2019-04-26T11:38:56.097Z,28.88
2019-04-26T11:41:22.976Z,28.71
2019-04-26T11:43:52.871Z,28.80
2019-04-26T11:46:21.821Z,28.87
2019-04-26T11:48:58.554Z,29.09
2019-04-26T11:51:16.098Z,29.25
2019-04-26T11:53:44.950Z,29.75
2019-04-26T11:56:14.017Z,30.08
2019-04-26T11:58:40.810Z,30.34
2019-04-26T12:01:07.622Z,30.70
2019-04-26T12:03:34.814Z,30.87
2019-04-26T12:06:01.729Z,31.11
2019-04-26T12:08:28.594Z,31.39
2019-04-26T12:10:55.328Z,31.07
2019-04-26T12:13:25.098Z,30.98
2019-04-26T12:15:52.117Z,30.52
2019-04-26T12:18:19.005Z,30.08
2019-04-26T12:20:45.705Z,29.93
2019-04-26T12:23:13.570Z,30.07
2019-04-26T12:25:43.625Z,29.96
2019-04-26T12:28:10.169Z,29.95
2019-04-26T12:30:37.319Z,30.12
2019-04-26T12:33:07.269Z,30.03
2019-04-26T12:35:34.173Z,30.21
2019-04-26T12:38:01.056Z,30.20
2019-04-26T12:40:27.902Z,30.04
2019-04-26T12:42:54.767Z,30.16
2019-04-26T12:45:21.632Z,30.29
2019-04-26T12:47:48.787Z,30.51
2019-04-26T12:50:16.354Z,30.54
2019-04-26T12:52:42.994Z,30.41
2019-04-26T12:55:21.948Z,30.35
2019-04-26T13:02:55.713Z,30.31
2019-04-26T13:05:22.793Z,30.03
2019-04-26T13:07:49.731Z,29.98
2019-04-26T13:10:16.631Z,29.67
2019-04-26T13:12:43.516Z,29.71
2019-04-26T13:15:13.234Z,29.65
2019-04-26T13:17:39.450Z,29.90
2019-04-26T13:20:06.312Z,30.21
2019-04-26T13:22:45.341Z,30.42
2019-04-26T13:25:02.399Z,30.49
2019-04-26T13:27:29.293Z,30.70
2019-04-26T13:30:02.445Z,30.92
2019-04-26T13:32:24.722Z,30.77
2019-04-26T13:34:51.288Z,30.29
2019-04-26T13:37:18.217Z,30.35
2019-04-26T13:39:46.314Z,30.52
2019-04-26T13:42:13.614Z,30.76
2019-04-26T13:44:41.790Z,30.72
2019-04-26T13:47:09.578Z,30.48
2019-04-26T13:49:36.427Z,30.43
2019-04-26T13:52:03.312Z,30.39
2019-04-26T13:54:30.571Z,30.41
2019-04-26T13:56:57.465Z,30.51
2019-04-26T13:59:24.339Z,30.36
2019-04-26T14:01:51.254Z,30.16
2019-04-26T14:04:18.147Z,29.92
2019-04-26T14:06:44.998Z,29.74
2019-04-26T14:09:12.390Z,29.41
2019-04-26T14:11:39.283Z,29.17
2019-04-26T14:14:05.893Z,29.13
2019-04-26T14:16:32.850Z,29.09
2019-04-26T14:18:59.451Z,29.32
2019-04-26T14:21:29.252Z,29.53
2019-04-26T14:23:55.160Z,29.80
2019-04-26T14:26:22.111Z,30.09
2019-04-26T14:28:49.035Z,30.23
2019-04-26T14:31:16.751Z,30.57
2019-04-26T14:33:44.296Z,30.84
2019-04-26T14:36:17.622Z,30.93
2019-04-26T14:38:41.284Z,30.78
2019-04-26T14:41:08.392Z,30.29
2019-04-26T14:43:41.019Z,30.30
2019-04-26T14:46:04.495Z,30.00
2019-04-26T14:48:36.139Z,30.05
2019-04-26T14:51:07.866Z,29.97
2019-04-26T14:53:32.094Z,30.01
2019-04-26T14:55:57.569Z,29.67
2019-04-26T14:58:29.989Z,29.68
2019-04-26T15:00:55.913Z,29.82
2019-04-26T15:03:22.586Z,29.49
2019-04-26T15:05:50.057Z,29.78
2019-04-26T15:08:16.963Z,30.08
2019-04-26T15:10:48.762Z,30.41
2019-04-26T15:13:19.948Z,30.83
2019-04-26T15:15:42.369Z,31.22
2019-04-26T15:18:10.204Z,30.78
2019-04-26T15:20:37.097Z,30.64
2019-04-26T15:23:04.011Z,30.95
2019-04-26T15:25:31.816Z,30.85
2019-04-26T15:27:59.572Z,30.70
2019-04-26T15:32:58.848Z,30.39
2019-04-26T15:38:11.310Z,30.38
2019-04-26T15:40:38.159Z,30.12
2019-04-26T15:43:14.395Z,30.19
2019-04-26T15:45:38.795Z,30.15
2019-04-26T15:48:02.330Z,29.97
2019-04-26T15:50:29.293Z,29.62
2019-04-26T15:52:56.522Z,29.54
2019-04-26T15:55:23.681Z,29.62
2019-04-26T15:57:50.609Z,29.41
2019-04-26T16:00:17.557Z,28.91
2019-04-26T16:02:44.457Z,28.80
2019-04-26T16:05:12.357Z,28.47
2019-04-26T16:07:39.703Z,28.38
2019-04-26T16:10:06.616Z,28.31
2019-04-26T16:12:33.496Z,28.05
2019-04-26T16:15:02.300Z,28.14
2019-04-26T16:17:28.750Z,28.32
2019-04-26T16:19:56.065Z,28.25
2019-04-26T16:22:25.793Z,28.37
2019-04-26T16:24:53.199Z,28.19
2019-04-26T16:27:19.928Z,28.08
2019-04-26T16:29:50.820Z,28.21
2019-04-26T16:32:16.871Z,28.22
2019-04-26T16:34:47.635Z,28.15
2019-04-26T16:37:15.038Z,28.11
2019-04-26T16:39:43.316Z,28.12
2019-04-26T16:42:09.972Z,28.13
2019-04-26T16:44:36.958Z,28.15
2019-04-26T16:47:05.905Z,28.15
2019-04-26T16:52:05.546Z,28.04
2019-04-26T16:54:29.846Z,27.88
2019-04-26T16:56:59.117Z,27.79
2019-04-26T16:59:26.824Z,27.82
2019-04-26T17:00:45.500Z,28.13
2019-04-26T17:01:53.950Z,27.76
2019-04-26T17:04:28.682Z,27.74
2019-04-26T17:06:50.209Z,27.69
2019-04-26T17:09:17.103Z,27.76
2019-04-26T17:11:49.661Z,27.74
2019-04-26T17:14:16.632Z,27.63
2019-04-26T17:16:44.462Z,27.61
2019-04-26T17:19:11.912Z,27.58
2019-04-26T17:21:39.969Z,27.45
2019-04-26T17:24:09.606Z,27.42
2019-04-26T17:26:36.486Z,27.37
2019-04-26T17:29:03.741Z,27.35
2019-04-26T17:31:30.569Z,27.42
2019-04-26T17:33:57.474Z,27.24
2019-04-26T17:36:24.398Z,27.06
2019-04-26T17:38:51.288Z,26.92
2019-04-26T17:41:18.486Z,26.84
2019-04-26T17:43:47.418Z,26.57
2019-04-26T17:46:14.559Z,26.36
2019-04-26T17:48:44.875Z,26.08
2019-04-26T17:51:18.495Z,26.12
2019-04-26T17:53:40.187Z,26.18
2019-04-26T17:56:07.359Z,26.22
2019-04-26T17:58:49.199Z,26.37
2019-04-26T18:01:03.805Z,26.21
2019-04-26T18:03:32.539Z,26.08
2019-04-26T18:06:00.874Z,26.00
2019-04-26T18:08:38.692Z,26.03
2019-04-26T18:10:56.322Z,25.93
2019-04-26T18:13:23.117Z,25.85
2019-04-26T18:15:49.994Z,25.92
2019-04-26T18:18:18.271Z,25.82
2019-04-26T18:20:45.149Z,25.78
2019-04-26T18:23:15.423Z,25.61
2019-04-26T18:25:41.288Z,25.47
2019-04-26T18:28:13.255Z,25.51
2019-04-26T18:30:40.391Z,25.54
2019-04-26T18:33:06.749Z,25.60
2019-04-26T18:35:33.807Z,25.48
2019-04-26T18:38:00.658Z,25.46
2019-04-26T18:40:27.504Z,25.35
2019-04-26T18:42:55.100Z,25.38
2019-04-26T18:45:28.762Z,25.45
2019-04-26T18:47:50.348Z,25.46
2019-04-26T18:50:18.642Z,25.45
2019-04-26T18:52:45.650Z,25.21
2019-04-26T18:55:14.869Z,25.22
2019-04-26T18:57:43.022Z,25.14
2019-04-26T19:00:10.016Z,25.02
2019-04-26T19:02:36.905Z,24.93
2019-04-26T19:05:04.492Z,24.76
2019-04-26T19:07:32.678Z,24.55
2019-04-26T19:10:04.681Z,24.47
2019-04-26T19:12:28.473Z,24.44
2019-04-26T19:15:03.292Z,24.49
2019-04-26T19:17:26.185Z,24.53
2019-04-26T19:19:53.154Z,24.47
2019-04-26T19:22:22.542Z,24.36
2019-04-26T19:24:54.197Z,24.28
2019-04-26T19:27:22.386Z,24.32
2019-04-26T19:29:48.041Z,24.32
2019-04-26T19:32:15.924Z,24.46
2019-04-26T19:34:42.563Z,24.50
2019-04-26T19:37:10.809Z,24.41
2019-04-26T19:39:37.796Z,24.35
2019-04-26T19:42:06.283Z,24.24
2019-04-26T19:44:34.316Z,24.13
2019-04-26T19:47:06.537Z,24.09
2019-04-26T19:49:33.355Z,24.10
2019-04-26T19:52:03.718Z,24.07
2019-04-26T19:54:35.454Z,24.09
2019-04-26T19:57:01.078Z,24.04
2019-04-26T19:59:33.248Z,23.94
2019-04-26T20:01:57.835Z,23.76
2019-04-26T20:04:30.642Z,23.62
2019-04-26T20:06:55.419Z,23.29
2019-04-26T20:09:26.364Z,23.19
2019-04-26T20:11:57.971Z,23.25
2019-04-26T20:14:25.807Z,23.16
2019-04-26T20:16:49.566Z,23.26
2019-04-26T20:19:17.979Z,23.14
2019-04-26T20:21:45.475Z,23.17
2019-04-26T20:24:13.552Z,23.14
2019-04-26T20:26:41.956Z,23.17
2019-04-26T20:29:10.152Z,23.19
2019-04-26T20:31:44.978Z,23.18
2019-04-26T20:34:10.968Z,23.17
2019-04-26T20:36:40.730Z,23.12
2019-04-26T20:39:03.884Z,23.19
2019-04-26T20:41:32.575Z,23.15
2019-04-26T20:44:06.958Z,23.10
2019-04-26T20:46:36.011Z,23.20
2019-04-26T20:49:09.270Z,23.13
2019-04-26T20:51:32.347Z,22.93
2019-04-26T20:53:59.666Z,22.89
2019-04-26T20:56:27.543Z,22.70
2019-04-26T20:58:57.455Z,22.73
2019-04-26T21:01:23.876Z,22.69
2019-04-26T21:03:55.318Z,22.81
2019-04-26T21:06:23.872Z,22.64
2019-04-26T21:08:53.782Z,22.57
2019-04-26T21:11:19.229Z,22.48
2019-04-26T21:13:48.833Z,22.32
2019-04-26T21:16:15.849Z,22.19
2019-04-26T21:18:44.797Z,22.03
2019-04-26T21:21:12.137Z,22.02
2019-04-26T21:23:43.850Z,21.97
2019-04-26T21:26:16.474Z,21.92
2019-04-26T21:28:43.862Z,21.86
2019-04-26T21:31:12.522Z,21.75
2019-04-26T21:33:42.929Z,21.87
2019-04-26T21:36:11.157Z,21.65
2019-04-26T21:38:38.731Z,21.38
2019-04-26T21:41:11.449Z,21.38
2019-04-26T21:43:37.955Z,21.34
2019-04-26T21:46:08.328Z,21.39
2019-04-26T21:48:37.344Z,21.35
2019-04-26T21:51:14.400Z,21.51
2019-04-26T21:53:42.156Z,21.31
2019-04-26T21:56:07.449Z,21.27
2019-04-26T21:58:38.591Z,21.18
2019-04-26T22:01:05.485Z,20.94
2019-04-26T22:03:34.900Z,20.73
2019-04-26T22:06:04.161Z,20.76
2019-04-26T22:08:34.734Z,20.90
2019-04-26T22:11:03.565Z,21.15
2019-04-26T22:13:33.342Z,21.25
2019-04-26T22:16:00.694Z,21.20
2019-04-26T22:18:40.030Z,21.15
2019-04-26T22:21:07.827Z,21.25
2019-04-26T22:23:36.341Z,21.28
2019-04-26T22:26:08.617Z,21.39
2019-04-26T22:28:36.333Z,21.25
2019-04-26T22:31:08.546Z,21.28
2019-04-26T22:33:34.350Z,21.34
2019-04-26T22:36:04.766Z,21.28
2019-04-26T22:38:33.986Z,21.31
2019-04-26T22:41:02.936Z,21.34
2019-04-26T22:43:29.784Z,21.30
2019-04-26T22:46:02.955Z,20.95
2019-04-26T22:48:33.915Z,20.52
2019-04-26T22:50:59.659Z,20.50
2019-04-26T22:53:29.332Z,20.39
2019-04-26T22:56:01.399Z,20.45
2019-04-26T22:58:30.217Z,20.33
2019-04-26T23:01:03.471Z,20.49
2019-04-26T23:03:28.265Z,20.64
2019-04-26T23:05:55.117Z,20.85
2019-04-26T23:08:25.841Z,20.81
2019-04-26T23:10:53.136Z,20.79
2019-04-26T23:13:23.850Z,20.86
2019-04-26T23:15:52.677Z,20.66
2019-04-26T23:20:53.217Z,20.09
2019-04-26T23:26:12.660Z,20.44
2019-04-26T23:28:40.302Z,20.34
2019-04-26T23:31:08.294Z,20.34
2019-04-26T23:33:42.912Z,20.44
2019-04-26T23:36:08.982Z,20.50
2019-04-26T23:38:37.635Z,20.49
2019-04-26T23:41:07.270Z,20.27
2019-04-26T23:43:37.882Z,19.94
2019-04-26T23:46:05.805Z,19.60
2019-04-26T23:48:34.506Z,19.60
2019-04-26T23:51:05.069Z,19.79
2019-04-26T23:53:33.627Z,20.10
2019-04-26T23:56:03.601Z,20.10
2019-04-26T23:58:30.658Z,19.99
